sensor_id;sensor_type;location;lat;lon;timestamp;temperature;humidity
13744;DHT22;6943;52.368;9.966;2023-02-01T00:01:19;5.50;1.00
13744;DHT22;6943;52.368;9.966;2023-02-01T00:03:44;5.50;1.00
13744;DHT22;6943;52.368;9.966;2023-02-01T00:06:10;5.60;1.00
13744;DHT22;6943;52.368;9.966;2023-02-01T00:08:35;5.50;1.00
13744;DHT22;6943;52.368;9.966;2023-02-01T00:11:11;5.60;1.00
13744;DHT22;6943;52.368;9.966;2023-02-01T00:13:40;5.60;1.00
13744;DHT22;6943;52.368;9.966;2023-02-01T00:16:08;5.60;1.00
13744;DHT22;6943;52.368;9.966;2023-02-01T00:18:34;5.50;1.00
13744;DHT22;6943;52.368;9.966;2023-02-01T00:20:59;5.60;1.00
13744;DHT22;6943;52.368;9.966;2023-02-01T00:23:25;5.60;1.00
13744;DHT22;6943;52.368;9.966;2023-02-01T00:25:50;5.60;1.00
13744;DHT22;6943;52.368;9.966;2023-02-01T00:28:16;5.60;1.00
13744;DHT22;6943;52.368;9.966;2023-02-01T00:30:41;5.60;1.00
13744;DHT22;6943;52.368;9.966;2023-02-01T00:33:07;5.60;1.00
13744;DHT22;6943;52.368;9.966;2023-02-01T00:35:34;5.60;1.00
13744;DHT22;6943;52.368;9.966;2023-02-01T00:38:00;5.60;1.00
13744;DHT22;6943;52.368;9.966;2023-02-01T00:40:25;5.60;1.00
13744;DHT22;6943;52.368;9.966;2023-02-01T00:42:51;5.60;1.00
13744;DHT22;6943;52.368;9.966;2023-02-01T00:45:17;5.60;1.00
13744;DHT22;6943;52.368;9.966;2023-02-01T00:47:43;5.60;1.00
13744;DHT22;6943;52.368;9.966;2023-02-01T00:50:09;5.60;1.00
13744;DHT22;6943;52.368;9.966;2023-02-01T00:52:34;5.60;1.00
13744;DHT22;6943;52.368;9.966;2023-02-01T00:55:00;5.60;1.00
13744;DHT22;6943;52.368;9.966;2023-02-01T00:57:25;5.60;1.00
13744;DHT22;6943;52.368;9.966;2023-02-01T00:59:51;5.60;1.00
13744;DHT22;6943;52.368;9.966;2023-02-01T01:02:16;5.70;1.00
13744;DHT22;6943;52.368;9.966;2023-02-01T01:04:42;5.70;1.00
13744;DHT22;6943;52.368;9.966;2023-02-01T01:07:07;5.70;1.00
13744;DHT22;6943;52.368;9.966;2023-02-01T01:09:33;5.70;1.00
13744;DHT22;6943;52.368;9.966;2023-02-01T01:11:58;5.60;1.00
13744;DHT22;6943;52.368;9.966;2023-02-01T01:14:28;5.60;1.00
13744;DHT22;6943;52.368;9.966;2023-02-01T01:16:54;5.60;1.00
13744;DHT22;6943;52.368;9.966;2023-02-01T01:19:19;5.60;1.00
13744;DHT22;6943;52.368;9.966;2023-02-01T01:21:45;5.60;1.00
13744;DHT22;6943;52.368;9.966;2023-02-01T01:24:10;5.70;1.00
13744;DHT22;6943;52.368;9.966;2023-02-01T01:26:36;5.60;1.00
13744;DHT22;6943;52.368;9.966;2023-02-01T01:29:01;5.60;1.00
13744;DHT22;6943;52.368;9.966;2023-02-01T01:31:27;5.70;1.00
13744;DHT22;6943;52.368;9.966;2023-02-01T01:33:55;5.70;1.00
13744;DHT22;6943;52.368;9.966;2023-02-01T01:36:21;5.80;1.00
13744;DHT22;6943;52.368;9.966;2023-02-01T01:38:47;5.80;1.00
13744;DHT22;6943;52.368;9.966;2023-02-01T01:41:21;5.90;1.00
13744;DHT22;6943;52.368;9.966;2023-02-01T01:43:50;5.80;1.00
13744;DHT22;6943;52.368;9.966;2023-02-01T01:46:21;5.80;1.00
13744;DHT22;6943;52.368;9.966;2023-02-01T01:48:51;5.80;1.00
13744;DHT22;6943;52.368;9.966;2023-02-01T01:51:20;5.80;1.00
13744;DHT22;6943;52.368;9.966;2023-02-01T01:53:56;5.70;1.00
13744;DHT22;6943;52.368;9.966;2023-02-01T01:56:25;5.80;1.00
13744;DHT22;6943;52.368;9.966;2023-02-01T01:58:52;5.80;1.00
13744;DHT22;6943;52.368;9.966;2023-02-01T02:01:18;5.70;1.00
13744;DHT22;6943;52.368;9.966;2023-02-01T02:03:45;5.80;1.00
13744;DHT22;6943;52.368;9.966;2023-02-01T02:06:20;5.80;1.00
13744;DHT22;6943;52.368;9.966;2023-02-01T02:08:48;5.90;1.00
13744;DHT22;6943;52.368;9.966;2023-02-01T02:11:16;5.90;1.00
13744;DHT22;6943;52.368;9.966;2023-02-01T02:13:44;5.90;1.00
13744;DHT22;6943;52.368;9.966;2023-02-01T02:16:14;5.90;1.00
13744;DHT22;6943;52.368;9.966;2023-02-01T02:19:22;5.90;1.00
13744;DHT22;6943;52.368;9.966;2023-02-01T02:25:12;5.80;1.00
13744;DHT22;6943;52.368;9.966;2023-02-01T02:27:52;5.70;1.00
13744;DHT22;6943;52.368;9.966;2023-02-01T02:39:12;5.70;1.00
13744;DHT22;6943;52.368;9.966;2023-02-01T02:44:53;5.70;1.00
13744;DHT22;6943;52.368;9.966;2023-02-01T02:53:13;5.70;1.00
13744;DHT22;6943;52.368;9.966;2023-02-01T02:55:59;5.70;1.00
13744;DHT22;6943;52.368;9.966;2023-02-01T02:58:43;5.70;1.00
13744;DHT22;6943;52.368;9.966;2023-02-01T03:01:30;5.70;1.00
13744;DHT22;6943;52.368;9.966;2023-02-01T03:04:14;5.80;1.00
13744;DHT22;6943;52.368;9.966;2023-02-01T03:06:45;5.80;1.00
13744;DHT22;6943;52.368;9.966;2023-02-01T03:09:31;5.80;1.00
13744;DHT22;6943;52.368;9.966;2023-02-01T03:12:02;5.90;1.00
13744;DHT22;6943;52.368;9.966;2023-02-01T03:14:52;5.80;1.00
13744;DHT22;6943;52.368;9.966;2023-02-01T03:17:22;5.90;1.00
13744;DHT22;6943;52.368;9.966;2023-02-01T03:19:52;5.90;1.00
13744;DHT22;6943;52.368;9.966;2023-02-01T03:22:21;5.90;1.00
13744;DHT22;6943;52.368;9.966;2023-02-01T03:24:54;5.90;1.00
13744;DHT22;6943;52.368;9.966;2023-02-01T03:27:24;5.80;1.00
13744;DHT22;6943;52.368;9.966;2023-02-01T03:30:02;5.80;1.00
13744;DHT22;6943;52.368;9.966;2023-02-01T03:32:28;5.80;1.00
13744;DHT22;6943;52.368;9.966;2023-02-01T03:34:54;5.80;1.00
13744;DHT22;6943;52.368;9.966;2023-02-01T03:37:26;5.80;1.00
13744;DHT22;6943;52.368;9.966;2023-02-01T03:40:06;5.90;1.00
13744;DHT22;6943;52.368;9.966;2023-02-01T03:42:35;5.80;1.00
13744;DHT22;6943;52.368;9.966;2023-02-01T03:47:37;5.90;1.00
13744;DHT22;6943;52.368;9.966;2023-02-01T03:50:10;5.90;1.00
13744;DHT22;6943;52.368;9.966;2023-02-01T03:52:52;5.90;1.00
13744;DHT22;6943;52.368;9.966;2023-02-01T03:55:21;5.90;1.00
13744;DHT22;6943;52.368;9.966;2023-02-01T03:57:58;6.00;1.00
13744;DHT22;6943;52.368;9.966;2023-02-01T04:00:26;5.90;1.00
13744;DHT22;6943;52.368;9.966;2023-02-01T04:02:52;6.00;1.00
13744;DHT22;6943;52.368;9.966;2023-02-01T04:05:18;6.00;1.00
13744;DHT22;6943;52.368;9.966;2023-02-01T04:07:44;6.00;1.00
13744;DHT22;6943;52.368;9.966;2023-02-01T04:10:10;6.00;1.00
13744;DHT22;6943;52.368;9.966;2023-02-01T04:12:36;6.00;1.00
13744;DHT22;6943;52.368;9.966;2023-02-01T04:15:01;6.00;1.00
13744;DHT22;6943;52.368;9.966;2023-02-01T04:17:27;6.00;1.00
13744;DHT22;6943;52.368;9.966;2023-02-01T04:19:52;6.00;1.00
13744;DHT22;6943;52.368;9.966;2023-02-01T04:22:18;6.00;1.00
13744;DHT22;6943;52.368;9.966;2023-02-01T04:24:43;6.00;1.00
13744;DHT22;6943;52.368;9.966;2023-02-01T04:27:09;6.00;1.00
13744;DHT22;6943;52.368;9.966;2023-02-01T04:29:34;6.00;1.00
13744;DHT22;6943;52.368;9.966;2023-02-01T04:32:00;6.00;1.00
13744;DHT22;6943;52.368;9.966;2023-02-01T04:34:26;6.00;1.00
13744;DHT22;6943;52.368;9.966;2023-02-01T04:36:51;6.00;1.00
13744;DHT22;6943;52.368;9.966;2023-02-01T04:39:17;6.00;1.00
13744;DHT22;6943;52.368;9.966;2023-02-01T04:41:43;6.00;1.00
13744;DHT22;6943;52.368;9.966;2023-02-01T04:44:16;6.00;99.90
13744;DHT22;6943;52.368;9.966;2023-02-01T04:46:42;6.00;99.90
13744;DHT22;6943;52.368;9.966;2023-02-01T04:49:12;6.00;99.90
13744;DHT22;6943;52.368;9.966;2023-02-01T04:51:38;6.00;99.90
13744;DHT22;6943;52.368;9.966;2023-02-01T04:54:04;6.00;99.90
13744;DHT22;6943;52.368;9.966;2023-02-01T04:56:30;6.00;95.10
13744;DHT22;6943;52.368;9.966;2023-02-01T04:58:55;6.00;1.00
13744;DHT22;6943;52.368;9.966;2023-02-01T05:01:22;6.00;1.00
13744;DHT22;6943;52.368;9.966;2023-02-01T05:03:48;6.00;1.00
13744;DHT22;6943;52.368;9.966;2023-02-01T05:06:14;6.10;99.90
13744;DHT22;6943;52.368;9.966;2023-02-01T05:08:39;6.00;99.90
13744;DHT22;6943;52.368;9.966;2023-02-01T05:11:05;6.00;1.00
13744;DHT22;6943;52.368;9.966;2023-02-01T05:13:31;5.90;1.00
13744;DHT22;6943;52.368;9.966;2023-02-01T05:16:15;5.80;1.00
13744;DHT22;6943;52.368;9.966;2023-02-01T05:18:41;5.70;91.80
13744;DHT22;6943;52.368;9.966;2023-02-01T05:21:06;5.70;1.00
13744;DHT22;6943;52.368;9.966;2023-02-01T05:23:32;5.60;1.00
13744;DHT22;6943;52.368;9.966;2023-02-01T05:25:59;5.60;22.10
13744;DHT22;6943;52.368;9.966;2023-02-01T05:28:26;5.60;99.90
13744;DHT22;6943;52.368;9.966;2023-02-01T05:30:51;5.60;1.00
13744;DHT22;6943;52.368;9.966;2023-02-01T05:33:17;5.50;1.00
13744;DHT22;6943;52.368;9.966;2023-02-01T05:35:42;5.50;1.00
13744;DHT22;6943;52.368;9.966;2023-02-01T05:38:08;5.50;99.90
13744;DHT22;6943;52.368;9.966;2023-02-01T05:40:33;5.40;99.90
13744;DHT22;6943;52.368;9.966;2023-02-01T05:42:59;5.30;1.00
13744;DHT22;6943;52.368;9.966;2023-02-01T05:45:24;5.40;99.90
13744;DHT22;6943;52.368;9.966;2023-02-01T05:47:50;5.40;1.00
13744;DHT22;6943;52.368;9.966;2023-02-01T05:50:16;5.30;1.00
13744;DHT22;6943;52.368;9.966;2023-02-01T05:52:42;5.40;99.90
13744;DHT22;6943;52.368;9.966;2023-02-01T05:55:08;5.40;1.00
13744;DHT22;6943;52.368;9.966;2023-02-01T05:57:33;5.40;99.90
13744;DHT22;6943;52.368;9.966;2023-02-01T05:59:59;5.40;99.90
13744;DHT22;6943;52.368;9.966;2023-02-01T06:02:24;5.40;1.00
13744;DHT22;6943;52.368;9.966;2023-02-01T06:04:50;5.40;1.00
13744;DHT22;6943;52.368;9.966;2023-02-01T06:07:16;5.50;1.00
13744;DHT22;6943;52.368;9.966;2023-02-01T06:09:41;5.50;1.00
13744;DHT22;6943;52.368;9.966;2023-02-01T06:12:07;5.50;1.00
13744;DHT22;6943;52.368;9.966;2023-02-01T06:14:33;5.60;99.90
13744;DHT22;6943;52.368;9.966;2023-02-01T06:16:58;5.60;99.90
13744;DHT22;6943;52.368;9.966;2023-02-01T06:19:24;5.60;30.00
13744;DHT22;6943;52.368;9.966;2023-02-01T06:21:49;5.60;1.00
13744;DHT22;6943;52.368;9.966;2023-02-01T06:24:15;5.70;1.00
13744;DHT22;6943;52.368;9.966;2023-02-01T06:26:41;5.70;1.00
13744;DHT22;6943;52.368;9.966;2023-02-01T06:29:09;5.70;1.00
13744;DHT22;6943;52.368;9.966;2023-02-01T06:31:34;5.70;1.00
13744;DHT22;6943;52.368;9.966;2023-02-01T06:34:00;5.80;1.00
13744;DHT22;6943;52.368;9.966;2023-02-01T06:36:25;5.80;1.00
13744;DHT22;6943;52.368;9.966;2023-02-01T06:38:51;5.80;99.90
13744;DHT22;6943;52.368;9.966;2023-02-01T06:41:17;5.80;1.00
13744;DHT22;6943;52.368;9.966;2023-02-01T06:43:42;5.80;1.00
13744;DHT22;6943;52.368;9.966;2023-02-01T06:46:13;5.80;1.00
13744;DHT22;6943;52.368;9.966;2023-02-01T06:48:38;5.80;1.00
13744;DHT22;6943;52.368;9.966;2023-02-01T06:51:04;5.80;1.00
13744;DHT22;6943;52.368;9.966;2023-02-01T06:56:48;5.70;1.00
13744;DHT22;6943;52.368;9.966;2023-02-01T06:59:14;5.70;1.00
13744;DHT22;6943;52.368;9.966;2023-02-01T07:01:39;5.70;1.00
13744;DHT22;6943;52.368;9.966;2023-02-01T07:04:05;5.70;1.00
13744;DHT22;6943;52.368;9.966;2023-02-01T07:06:31;5.70;99.90
13744;DHT22;6943;52.368;9.966;2023-02-01T07:08:57;5.70;99.90
13744;DHT22;6943;52.368;9.966;2023-02-01T07:11:23;5.60;99.90
13744;DHT22;6943;52.368;9.966;2023-02-01T07:13:49;5.70;99.90
13744;DHT22;6943;52.368;9.966;2023-02-01T07:16:17;5.70;1.00
13744;DHT22;6943;52.368;9.966;2023-02-01T07:18:43;5.70;1.00
13744;DHT22;6943;52.368;9.966;2023-02-01T07:21:09;5.70;1.00
13744;DHT22;6943;52.368;9.966;2023-02-01T07:23:35;5.70;1.00
13744;DHT22;6943;52.368;9.966;2023-02-01T07:26:03;5.80;1.00
13744;DHT22;6943;52.368;9.966;2023-02-01T07:28:31;5.80;1.00
13744;DHT22;6943;52.368;9.966;2023-02-01T07:31:23;5.80;1.00
13744;DHT22;6943;52.368;9.966;2023-02-01T07:33:51;5.70;1.00
13744;DHT22;6943;52.368;9.966;2023-02-01T07:36:17;5.70;1.00
13744;DHT22;6943;52.368;9.966;2023-02-01T07:38:43;5.80;1.00
13744;DHT22;6943;52.368;9.966;2023-02-01T07:41:09;5.90;1.00
13744;DHT22;6943;52.368;9.966;2023-02-01T07:43:35;5.90;1.00
13744;DHT22;6943;52.368;9.966;2023-02-01T07:46:02;5.90;1.00
13744;DHT22;6943;52.368;9.966;2023-02-01T07:48:28;5.90;1.00
13744;DHT22;6943;52.368;9.966;2023-02-01T07:51:13;5.90;1.00
13744;DHT22;6943;52.368;9.966;2023-02-01T07:53:39;6.00;99.90
13744;DHT22;6943;52.368;9.966;2023-02-01T07:56:11;6.00;99.90
13744;DHT22;6943;52.368;9.966;2023-02-01T07:58:37;6.00;78.90
13744;DHT22;6943;52.368;9.966;2023-02-01T08:01:03;6.10;4.00
13744;DHT22;6943;52.368;9.966;2023-02-01T08:03:50;6.10;12.40
13744;DHT22;6943;52.368;9.966;2023-02-01T08:06:16;6.10;1.00
13744;DHT22;6943;52.368;9.966;2023-02-01T08:08:41;6.00;1.00
13744;DHT22;6943;52.368;9.966;2023-02-01T08:11:10;6.00;1.00
13744;DHT22;6943;52.368;9.966;2023-02-01T08:13:36;6.00;1.00
13744;DHT22;6943;52.368;9.966;2023-02-01T08:16:03;6.10;1.00
13744;DHT22;6943;52.368;9.966;2023-02-01T08:18:30;6.10;1.00
13744;DHT22;6943;52.368;9.966;2023-02-01T08:20:55;6.20;1.00
13744;DHT22;6943;52.368;9.966;2023-02-01T08:23:22;6.20;1.00
13744;DHT22;6943;52.368;9.966;2023-02-01T08:25:48;6.20;99.90
13744;DHT22;6943;52.368;9.966;2023-02-01T08:28:14;6.30;99.90
13744;DHT22;6943;52.368;9.966;2023-02-01T08:30:40;6.20;99.90
13744;DHT22;6943;52.368;9.966;2023-02-01T08:33:07;6.30;99.90
13744;DHT22;6943;52.368;9.966;2023-02-01T08:35:38;6.40;99.90
13744;DHT22;6943;52.368;9.966;2023-02-01T08:38:04;6.40;99.90
13744;DHT22;6943;52.368;9.966;2023-02-01T08:40:30;6.40;1.00
13744;DHT22;6943;52.368;9.966;2023-02-01T08:42:56;6.40;1.00
13744;DHT22;6943;52.368;9.966;2023-02-01T08:45:24;6.40;1.00
13744;DHT22;6943;52.368;9.966;2023-02-01T08:47:53;6.40;1.00
13744;DHT22;6943;52.368;9.966;2023-02-01T08:50:20;6.40;1.00
13744;DHT22;6943;52.368;9.966;2023-02-01T08:52:46;6.50;99.90
13744;DHT22;6943;52.368;9.966;2023-02-01T08:55:13;6.50;99.90
13744;DHT22;6943;52.368;9.966;2023-02-01T08:57:39;6.60;99.90
13744;DHT22;6943;52.368;9.966;2023-02-01T09:00:06;6.60;99.90
13744;DHT22;6943;52.368;9.966;2023-02-01T09:02:33;6.80;1.00
13744;DHT22;6943;52.368;9.966;2023-02-01T09:04:59;6.90;1.00
13744;DHT22;6943;52.368;9.966;2023-02-01T09:07:24;7.10;1.00
13744;DHT22;6943;52.368;9.966;2023-02-01T09:09:50;7.20;1.00
13744;DHT22;6943;52.368;9.966;2023-02-01T09:12:16;7.30;1.00
13744;DHT22;6943;52.368;9.966;2023-02-01T09:14:41;7.50;1.00
13744;DHT22;6943;52.368;9.966;2023-02-01T09:17:07;7.50;99.90
13744;DHT22;6943;52.368;9.966;2023-02-01T09:19:32;7.50;99.90
13744;DHT22;6943;52.368;9.966;2023-02-01T09:21:58;7.50;99.90
13744;DHT22;6943;52.368;9.966;2023-02-01T09:24:23;7.40;99.90
13744;DHT22;6943;52.368;9.966;2023-02-01T09:26:49;7.60;99.90
13744;DHT22;6943;52.368;9.966;2023-02-01T09:29:15;7.70;99.90
13744;DHT22;6943;52.368;9.966;2023-02-01T09:31:41;7.70;99.90
13744;DHT22;6943;52.368;9.966;2023-02-01T09:34:07;7.80;99.90
13744;DHT22;6943;52.368;9.966;2023-02-01T09:36:33;8.00;99.90
13744;DHT22;6943;52.368;9.966;2023-02-01T09:38:59;8.30;1.00
13744;DHT22;6943;52.368;9.966;2023-02-01T09:41:53;8.20;1.00
13744;DHT22;6943;52.368;9.966;2023-02-01T09:47:18;8.10;1.00
13744;DHT22;6943;52.368;9.966;2023-02-01T09:49:56;8.00;1.00
13744;DHT22;6943;52.368;9.966;2023-02-01T09:52:31;7.90;1.00
13744;DHT22;6943;52.368;9.966;2023-02-01T09:55:05;8.30;1.00
13744;DHT22;6943;52.368;9.966;2023-02-01T09:57:43;7.80;1.00
13744;DHT22;6943;52.368;9.966;2023-02-01T10:00:18;7.70;93.70
13744;DHT22;6943;52.368;9.966;2023-02-01T10:02:46;7.80;53.40
13744;DHT22;6943;52.368;9.966;2023-02-01T10:05:15;7.80;99.90
13744;DHT22;6943;52.368;9.966;2023-02-01T10:08:01;7.80;68.50
13744;DHT22;6943;52.368;9.966;2023-02-01T10:10:49;7.80;37.20
13744;DHT22;6943;52.368;9.966;2023-02-01T10:13:34;8.00;44.40
13744;DHT22;6943;52.368;9.966;2023-02-01T10:16:32;8.00;1.00
13744;DHT22;6943;52.368;9.966;2023-02-01T10:19:16;8.00;1.00
13744;DHT22;6943;52.368;9.966;2023-02-01T10:22:02;8.00;1.00
13744;DHT22;6943;52.368;9.966;2023-02-01T10:24:39;8.00;1.00
13744;DHT22;6943;52.368;9.966;2023-02-01T10:27:19;8.00;1.00
13744;DHT22;6943;52.368;9.966;2023-02-01T10:29:54;8.20;1.00
13744;DHT22;6943;52.368;9.966;2023-02-01T10:32:29;8.30;1.00
13744;DHT22;6943;52.368;9.966;2023-02-01T10:34:58;8.40;1.00
13744;DHT22;6943;52.368;9.966;2023-02-01T10:39:56;8.40;1.00
13744;DHT22;6943;52.368;9.966;2023-02-01T10:42:26;8.50;1.00
13744;DHT22;6943;52.368;9.966;2023-02-01T10:44:58;8.50;1.00
13744;DHT22;6943;52.368;9.966;2023-02-01T10:47:25;8.50;1.00
13744;DHT22;6943;52.368;9.966;2023-02-01T10:50:22;8.40;1.00
13744;DHT22;6943;52.368;9.966;2023-02-01T10:53:17;8.40;1.00
13744;DHT22;6943;52.368;9.966;2023-02-01T10:55:49;8.30;1.00
13744;DHT22;6943;52.368;9.966;2023-02-01T10:58:20;8.30;1.00
13744;DHT22;6943;52.368;9.966;2023-02-01T11:00:54;8.40;1.00
13744;DHT22;6943;52.368;9.966;2023-02-01T11:03:53;8.30;1.00
13744;DHT22;6943;52.368;9.966;2023-02-01T11:08:49;8.10;1.00
13744;DHT22;6943;52.368;9.966;2023-02-01T11:11:15;8.10;1.00
13744;DHT22;6943;52.368;9.966;2023-02-01T11:13:41;8.00;1.00
13744;DHT22;6943;52.368;9.966;2023-02-01T11:16:12;8.00;1.00
13744;DHT22;6943;52.368;9.966;2023-02-01T11:18:38;8.00;1.00
13744;DHT22;6943;52.368;9.966;2023-02-01T11:21:08;8.00;1.00
13744;DHT22;6943;52.368;9.966;2023-02-01T11:23:40;8.10;1.00
13744;DHT22;6943;52.368;9.966;2023-02-01T11:26:14;8.10;1.00
13744;DHT22;6943;52.368;9.966;2023-02-01T11:28:51;8.00;1.00
13744;DHT22;6943;52.368;9.966;2023-02-01T11:31:18;7.80;1.00
13744;DHT22;6943;52.368;9.966;2023-02-01T11:33:51;7.90;1.00
13744;DHT22;6943;52.368;9.966;2023-02-01T11:36:21;7.80;1.00
13744;DHT22;6943;52.368;9.966;2023-02-01T11:38:54;7.70;1.00
13744;DHT22;6943;52.368;9.966;2023-02-01T11:43:57;8.00;1.00
13744;DHT22;6943;52.368;9.966;2023-02-01T11:46:29;8.10;1.00
13744;DHT22;6943;52.368;9.966;2023-02-01T11:48:56;8.20;1.00
13744;DHT22;6943;52.368;9.966;2023-02-01T11:54:55;8.20;1.00
13744;DHT22;6943;52.368;9.966;2023-02-01T11:57:46;8.40;1.00
13744;DHT22;6943;52.368;9.966;2023-02-01T12:00:32;8.80;1.00
13744;DHT22;6943;52.368;9.966;2023-02-01T12:03:35;9.10;1.00
13744;DHT22;6943;52.368;9.966;2023-02-01T12:16:42;8.80;1.00
13744;DHT22;6943;52.368;9.966;2023-02-01T12:19:39;9.10;1.00
13744;DHT22;6943;52.368;9.966;2023-02-01T12:22:26;9.30;1.00
13744;DHT22;6943;52.368;9.966;2023-02-01T12:38:21;8.00;1.00
13744;DHT22;6943;52.368;9.966;2023-02-01T12:46:43;7.50;99.90
13744;DHT22;6943;52.368;9.966;2023-02-01T12:49:19;7.60;1.00
13744;DHT22;6943;52.368;9.966;2023-02-01T12:51:52;7.60;1.00
13744;DHT22;6943;52.368;9.966;2023-02-01T12:54:23;7.50;1.00
13744;DHT22;6943;52.368;9.966;2023-02-01T12:57:04;7.20;99.90
13744;DHT22;6943;52.368;9.966;2023-02-01T13:02:11;7.40;99.90
13744;DHT22;6943;52.368;9.966;2023-02-01T13:07:27;7.30;1.00
13744;DHT22;6943;52.368;9.966;2023-02-01T13:09:59;7.00;1.00
13744;DHT22;6943;52.368;9.966;2023-02-01T13:12:36;6.90;1.00
13744;DHT22;6943;52.368;9.966;2023-02-01T13:15:09;6.90;1.00
13744;DHT22;6943;52.368;9.966;2023-02-01T13:17:36;6.80;99.90
13744;DHT22;6943;52.368;9.966;2023-02-01T13:20:23;6.80;99.90
13744;DHT22;6943;52.368;9.966;2023-02-01T13:22:54;6.70;1.00
13744;DHT22;6943;52.368;9.966;2023-02-01T13:25:31;6.60;99.90
13744;DHT22;6943;52.368;9.966;2023-02-01T13:28:04;6.50;1.00
13744;DHT22;6943;52.368;9.966;2023-02-01T13:30:45;6.50;1.00
13744;DHT22;6943;52.368;9.966;2023-02-01T13:35:55;6.40;1.00
13744;DHT22;6943;52.368;9.966;2023-02-01T13:42:01;6.20;1.00
13744;DHT22;6943;52.368;9.966;2023-02-01T13:44:45;5.70;1.00
13744;DHT22;6943;52.368;9.966;2023-02-01T13:49:43;5.00;1.00
13744;DHT22;6943;52.368;9.966;2023-02-01T13:52:28;5.00;1.00
13744;DHT22;6943;52.368;9.966;2023-02-01T13:57:49;4.90;1.00
13744;DHT22;6943;52.368;9.966;2023-02-01T14:10:51;4.60;1.00
13744;DHT22;6943;52.368;9.966;2023-02-01T14:13:40;4.50;1.00
13744;DHT22;6943;52.368;9.966;2023-02-01T14:23:55;4.60;99.90
13744;DHT22;6943;52.368;9.966;2023-02-01T14:26:24;4.60;1.00
13744;DHT22;6943;52.368;9.966;2023-02-01T14:28:57;4.60;1.00
13744;DHT22;6943;52.368;9.966;2023-02-01T14:31:37;4.60;1.00
13744;DHT22;6943;52.368;9.966;2023-02-01T14:34:16;4.60;1.00
13744;DHT22;6943;52.368;9.966;2023-02-01T14:36:52;4.60;1.00
13744;DHT22;6943;52.368;9.966;2023-02-01T14:39:25;4.60;1.00
13744;DHT22;6943;52.368;9.966;2023-02-01T14:41:57;4.60;1.00
13744;DHT22;6943;52.368;9.966;2023-02-01T14:44:27;4.60;1.00
13744;DHT22;6943;52.368;9.966;2023-02-01T14:47:11;4.50;1.00
13744;DHT22;6943;52.368;9.966;2023-02-01T14:49:55;4.50;1.00
13744;DHT22;6943;52.368;9.966;2023-02-01T14:52:28;4.40;99.90
13744;DHT22;6943;52.368;9.966;2023-02-01T14:54:56;4.50;99.90
13744;DHT22;6943;52.368;9.966;2023-02-01T14:57:26;4.50;16.80
13744;DHT22;6943;52.368;9.966;2023-02-01T15:00:00;4.40;1.00
13744;DHT22;6943;52.368;9.966;2023-02-01T15:02:30;4.30;99.90
13744;DHT22;6943;52.368;9.966;2023-02-01T15:04:59;4.30;1.00
13744;DHT22;6943;52.368;9.966;2023-02-01T15:07:25;4.90;1.00
13744;DHT22;6943;52.368;9.966;2023-02-01T15:09:54;4.20;1.00
13744;DHT22;6943;52.368;9.966;2023-02-01T15:12:25;4.10;1.00
13744;DHT22;6943;52.368;9.966;2023-02-01T15:15:20;4.00;1.00
13744;DHT22;6943;52.368;9.966;2023-02-01T15:17:58;3.90;99.90
13744;DHT22;6943;52.368;9.966;2023-02-01T15:20:30;3.90;99.90
13744;DHT22;6943;52.368;9.966;2023-02-01T15:23:06;3.80;1.00
13744;DHT22;6943;52.368;9.966;2023-02-01T15:25:36;3.80;1.00
13744;DHT22;6943;52.368;9.966;2023-02-01T15:28:04;3.80;1.00
13744;DHT22;6943;52.368;9.966;2023-02-01T15:30:33;3.80;1.00
13744;DHT22;6943;52.368;9.966;2023-02-01T15:35:44;3.90;6.40
13744;DHT22;6943;52.368;9.966;2023-02-01T15:38:34;3.90;1.00
13744;DHT22;6943;52.368;9.966;2023-02-01T15:41:14;3.80;1.00
13744;DHT22;6943;52.368;9.966;2023-02-01T15:43:43;3.80;99.90
13744;DHT22;6943;52.368;9.966;2023-02-01T15:46:32;3.80;99.90
13744;DHT22;6943;52.368;9.966;2023-02-01T15:48:59;3.70;1.00
13744;DHT22;6943;52.368;9.966;2023-02-01T15:51:28;3.70;1.00
13744;DHT22;6943;52.368;9.966;2023-02-01T15:56:25;3.60;99.90
13744;DHT22;6943;52.368;9.966;2023-02-01T15:58:54;3.60;1.00
13744;DHT22;6943;52.368;9.966;2023-02-01T16:01:21;3.60;1.00
13744;DHT22;6943;52.368;9.966;2023-02-01T16:03:47;3.60;1.00
13744;DHT22;6943;52.368;9.966;2023-02-01T16:09:21;3.50;1.00
13744;DHT22;6943;52.368;9.966;2023-02-01T16:11:52;3.50;1.00
13744;DHT22;6943;52.368;9.966;2023-02-01T16:14:19;3.50;1.00
13744;DHT22;6943;52.368;9.966;2023-02-01T16:16:45;3.50;1.00
13744;DHT22;6943;52.368;9.966;2023-02-01T16:19:10;3.50;1.00
13744;DHT22;6943;52.368;9.966;2023-02-01T16:21:36;3.50;1.00
13744;DHT22;6943;52.368;9.966;2023-02-01T16:24:01;3.50;1.00
13744;DHT22;6943;52.368;9.966;2023-02-01T16:26:30;3.60;1.00
13744;DHT22;6943;52.368;9.966;2023-02-01T16:28:57;3.60;1.00
13744;DHT22;6943;52.368;9.966;2023-02-01T16:31:26;3.60;1.00
13744;DHT22;6943;52.368;9.966;2023-02-01T16:33:52;3.60;1.00
13744;DHT22;6943;52.368;9.966;2023-02-01T16:36:18;3.70;1.00
13744;DHT22;6943;52.368;9.966;2023-02-01T16:38:45;3.60;1.00
13744;DHT22;6943;52.368;9.966;2023-02-01T16:41:17;3.60;1.00
13744;DHT22;6943;52.368;9.966;2023-02-01T16:43:44;3.70;1.00
13744;DHT22;6943;52.368;9.966;2023-02-01T16:46:19;3.70;1.00
13744;DHT22;6943;52.368;9.966;2023-02-01T16:48:52;3.80;1.00
13744;DHT22;6943;52.368;9.966;2023-02-01T16:51:18;3.80;1.00
13744;DHT22;6943;52.368;9.966;2023-02-01T16:53:45;3.90;1.00
13744;DHT22;6943;52.368;9.966;2023-02-01T16:56:18;3.90;1.00
13744;DHT22;6943;52.368;9.966;2023-02-01T16:58:44;3.90;99.90
13744;DHT22;6943;52.368;9.966;2023-02-01T17:01:11;4.00;53.50
13744;DHT22;6943;52.368;9.966;2023-02-01T17:03:38;4.10;1.00
13744;DHT22;6943;52.368;9.966;2023-02-01T17:06:05;4.20;99.90
13744;DHT22;6943;52.368;9.966;2023-02-01T17:08:34;4.20;1.00
13744;DHT22;6943;52.368;9.966;2023-02-01T17:11:00;4.20;1.00
13744;DHT22;6943;52.368;9.966;2023-02-01T17:13:26;4.40;99.90
13744;DHT22;6943;52.368;9.966;2023-02-01T17:18:47;4.80;1.00
13744;DHT22;6943;52.368;9.966;2023-02-01T17:21:15;5.00;1.00
13744;DHT22;6943;52.368;9.966;2023-02-01T17:23:41;5.00;1.00
13744;DHT22;6943;52.368;9.966;2023-02-01T17:26:09;5.10;99.90
13744;DHT22;6943;52.368;9.966;2023-02-01T17:28:34;5.10;99.90
13744;DHT22;6943;52.368;9.966;2023-02-01T17:31:00;5.30;99.90
13744;DHT22;6943;52.368;9.966;2023-02-01T17:33:30;5.30;99.90
13744;DHT22;6943;52.368;9.966;2023-02-01T17:35:56;5.40;99.90
13744;DHT22;6943;52.368;9.966;2023-02-01T17:38:23;5.40;1.00
13744;DHT22;6943;52.368;9.966;2023-02-01T17:40:49;5.40;99.90
13744;DHT22;6943;52.368;9.966;2023-02-01T17:43:18;5.40;99.90
13744;DHT22;6943;52.368;9.966;2023-02-01T17:45:53;5.40;1.00
13744;DHT22;6943;52.368;9.966;2023-02-01T17:48:20;5.40;1.00
13744;DHT22;6943;52.368;9.966;2023-02-01T17:50:48;5.50;1.00
13744;DHT22;6943;52.368;9.966;2023-02-01T17:53:15;5.50;1.00
13744;DHT22;6943;52.368;9.966;2023-02-01T17:55:43;5.50;1.00
13744;DHT22;6943;52.368;9.966;2023-02-01T17:58:11;5.60;1.00
13744;DHT22;6943;52.368;9.966;2023-02-01T18:00:37;5.70;1.00
13744;DHT22;6943;52.368;9.966;2023-02-01T18:03:03;5.70;1.00
13744;DHT22;6943;52.368;9.966;2023-02-01T18:05:38;5.60;99.90
13744;DHT22;6943;52.368;9.966;2023-02-01T18:08:05;5.50;1.00
13744;DHT22;6943;52.368;9.966;2023-02-01T18:10:30;5.40;1.00
13744;DHT22;6943;52.368;9.966;2023-02-01T18:12:56;5.40;1.00
13744;DHT22;6943;52.368;9.966;2023-02-01T18:15:24;5.40;1.00
13744;DHT22;6943;52.368;9.966;2023-02-01T18:17:50;5.50;1.00
13744;DHT22;6943;52.368;9.966;2023-02-01T18:20:18;5.50;1.00
13744;DHT22;6943;52.368;9.966;2023-02-01T18:22:44;5.50;1.00
13744;DHT22;6943;52.368;9.966;2023-02-01T18:27:46;5.60;99.90
13744;DHT22;6943;52.368;9.966;2023-02-01T18:30:12;5.60;1.00
13744;DHT22;6943;52.368;9.966;2023-02-01T18:32:39;5.60;1.00